Terminal Aerodrome Forecast
Issued by NWS Nashville, TN

Home | Current Version | Previous Version | Text Only | Print | Product List | Glossary On
Versions: 1 2 3 4 5 6 7 8 9 10 11 12 13 14 15 16 17 18 19 20 21 22 23
000
FTUS44 KOHX 010900 AAA
TAFBNA
TAF AMD
KBNA 010910Z 0109/0206 33013G21KT P6SM OVC030
      TEMPO 0109/0112 BKN025
     FM011600 35015KT P6SM SCT050
     FM012200 35007KT P6SM SKC=

USA.gov is the U.S. government's official web portal to all federal, state and local government web resources and services.